createdAt,value
2023-09-08T04:13:25.344Z,18.74
2023-09-08T04:15:53.002Z,18.92
2023-09-08T04:18:20.640Z,19.07
2023-09-08T04:20:49.379Z,18.72
2023-09-08T04:23:17.326Z,18.67
2023-09-08T04:25:44.816Z,18.92
2023-09-08T04:28:12.266Z,19.27
2023-09-08T04:30:40.332Z,19.47
2023-09-08T04:33:08.284Z,19.25
2023-09-08T04:35:35.901Z,18.72
2023-09-08T04:38:04.769Z,18.73
2023-09-08T04:40:32.620Z,18.82
2023-09-08T04:43:00.796Z,18.99
2023-09-08T04:45:28.777Z,18.86
2023-09-08T04:47:56.297Z,18.70
2023-09-08T04:50:23.816Z,18.75
2023-09-08T04:52:51.830Z,18.85
2023-09-08T04:55:20.692Z,18.93
2023-09-08T04:57:48.635Z,18.73
2023-09-08T05:00:17.091Z,18.63
2023-09-08T05:02:44.744Z,18.63
2023-09-08T05:05:13.002Z,18.81
2023-09-08T05:07:40.595Z,18.76
2023-09-08T05:10:08.466Z,18.51
2023-09-08T05:12:37.468Z,18.69
2023-09-08T05:15:11.410Z,18.72
2023-09-08T05:17:40.525Z,18.76
2023-09-08T05:20:09.008Z,19.46
2023-09-08T05:22:37.574Z,19.67
2023-09-08T05:25:06.020Z,19.53
2023-09-08T05:27:33.913Z,19.69
2023-09-08T05:30:01.811Z,19.68
2023-09-08T05:32:31.386Z,19.48
2023-09-08T05:34:59.531Z,19.84
2023-09-08T05:37:26.936Z,20.23
2023-09-08T05:39:54.480Z,20.44
2023-09-08T05:42:21.857Z,20.33
2023-09-08T05:44:49.490Z,20.12
2023-09-08T05:47:18.472Z,20.36
2023-09-08T05:49:47.155Z,20.42
2023-09-08T05:52:14.793Z,20.40
2023-09-08T05:54:43.700Z,20.47
2023-09-08T05:57:12.194Z,20.56
2023-09-08T05:59:39.653Z,20.82
2023-09-08T06:02:07.835Z,20.94
2023-09-08T06:04:35.280Z,20.84
2023-09-08T06:07:03.336Z,20.61
2023-09-08T06:09:33.605Z,20.85
2023-09-08T06:12:01.803Z,20.96
2023-09-08T06:14:29.769Z,20.94
2023-09-08T06:16:57.611Z,21.08
2023-09-08T06:19:25.152Z,21.12
2023-09-08T06:21:53.508Z,21.24
2023-09-08T06:24:21.065Z,21.42
2023-09-08T06:26:50.787Z,21.57
2023-09-08T06:29:18.236Z,21.71
2023-09-08T06:31:46.296Z,21.82
2023-09-08T06:34:14.737Z,21.84
2023-09-08T06:36:43.571Z,21.82
2023-09-08T06:39:11.604Z,22.12
2023-09-08T06:41:39.572Z,22.14
2023-09-08T06:44:08.525Z,21.82
2023-09-08T06:46:35.998Z,21.89
2023-09-08T06:49:05.208Z,21.87
2023-09-08T06:51:33.513Z,22.14
2023-09-08T06:54:01.645Z,22.15
2023-09-08T06:56:38.152Z,22.09
2023-09-08T06:59:07.068Z,22.26
2023-09-08T07:01:36.924Z,22.22
2023-09-08T07:04:05.194Z,22.26
2023-09-08T07:06:33.346Z,22.16
2023-09-08T07:09:01.300Z,22.05
2023-09-08T07:11:31.758Z,22.48
2023-09-08T07:13:59.647Z,22.64
2023-09-08T07:16:27.535Z,22.91
2023-09-08T07:18:55.517Z,23.04
2023-09-08T07:21:22.914Z,23.13
2023-09-08T07:23:51.232Z,23.28
2023-09-08T07:26:19.608Z,23.54
2023-09-08T07:28:47.177Z,23.86
2023-09-08T07:31:17.479Z,23.82
2023-09-08T07:33:47.729Z,23.89
2023-09-08T07:36:15.676Z,24.13
2023-09-08T07:38:45.457Z,23.86
2023-09-08T07:41:13.115Z,24.26
2023-09-08T07:43:42.270Z,24.41
2023-09-08T07:46:13.445Z,24.51
2023-09-08T07:48:41.233Z,24.65
2023-09-08T07:51:09.366Z,24.78
2023-09-08T07:53:37.271Z,24.74
2023-09-08T07:56:05.653Z,24.78
2023-09-08T07:58:34.019Z,24.93
2023-09-08T08:01:01.864Z,24.85
2023-09-08T08:03:29.681Z,24.89
2023-09-08T08:05:59.661Z,25.12
2023-09-08T08:08:27.132Z,25.10
2023-09-08T08:10:55.032Z,25.22
2023-09-08T08:13:22.564Z,25.26
2023-09-08T08:15:50.872Z,25.29
2023-09-08T08:18:19.102Z,25.35
2023-09-08T08:20:46.753Z,25.21
2023-09-08T08:23:15.647Z,25.44
2023-09-08T08:25:43.598Z,25.54
2023-09-08T08:28:11.378Z,25.48
2023-09-08T08:30:38.829Z,25.62
2023-09-08T08:33:06.409Z,25.80
2023-09-08T08:35:33.817Z,25.67
2023-09-08T08:38:01.528Z,25.81
2023-09-08T08:40:29.493Z,25.79
2023-09-08T08:42:59.942Z,26.00
2023-09-08T08:45:30.942Z,25.95
2023-09-08T08:47:59.662Z,26.08
2023-09-08T08:50:28.216Z,26.17
2023-09-08T08:52:56.321Z,26.28
2023-09-08T08:55:26.912Z,26.16
2023-09-08T08:57:54.422Z,26.28
2023-09-08T09:00:23.314Z,26.20
2023-09-08T09:03:07.316Z,26.45
2023-09-08T09:05:43.326Z,26.57
2023-09-08T09:08:14.300Z,26.57
2023-09-08T09:10:42.286Z,26.71
2023-09-08T09:13:10.034Z,26.61
2023-09-08T09:15:37.780Z,26.73
2023-09-08T09:18:09.269Z,26.95
2023-09-08T09:20:36.981Z,27.02
2023-09-08T09:23:04.656Z,26.95
2023-09-08T09:25:33.560Z,26.77
2023-09-08T09:28:03.889Z,26.84
2023-09-08T09:30:48.706Z,27.00
2023-09-08T09:33:17.027Z,27.17
2023-09-08T09:35:55.373Z,27.21
2023-09-08T09:38:23.905Z,27.44
2023-09-08T09:40:51.317Z,27.55
2023-09-08T09:43:22.525Z,27.03
2023-09-08T09:45:49.937Z,27.31
2023-09-08T09:48:21.180Z,27.30
2023-09-08T09:50:48.659Z,27.53
2023-09-08T09:53:17.950Z,27.53
2023-09-08T09:55:46.552Z,27.60
2023-09-08T09:58:16.445Z,27.63
2023-09-08T10:00:49.222Z,27.71
2023-09-08T10:03:18.796Z,27.59
2023-09-08T10:05:48.337Z,27.68
2023-09-08T10:08:15.895Z,27.60
2023-09-08T10:10:47.502Z,27.75
2023-09-08T10:13:25.389Z,27.70
2023-09-08T10:15:55.037Z,27.86
2023-09-08T10:18:26.897Z,27.78
2023-09-08T10:20:55.440Z,27.79
2023-09-08T10:23:38.337Z,27.90
2023-09-08T10:26:10.551Z,27.52
2023-09-08T10:28:40.057Z,27.98
2023-09-08T10:31:08.995Z,28.06
2023-09-08T10:33:37.415Z,28.07
2023-09-08T10:36:06.746Z,28.17
2023-09-08T10:38:37.848Z,28.56
2023-09-08T10:41:17.768Z,28.20
2023-09-08T10:43:58.779Z,28.64
2023-09-08T10:46:32.030Z,28.84
2023-09-08T10:49:05.091Z,28.72
2023-09-08T10:51:32.834Z,28.80
2023-09-08T10:54:00.362Z,29.02
2023-09-08T10:56:50.835Z,29.22
2023-09-08T10:59:18.447Z,29.56
2023-09-08T11:01:48.710Z,29.55
2023-09-08T11:04:20.378Z,29.45
2023-09-08T11:06:50.463Z,29.77
2023-09-08T11:09:18.341Z,29.85
2023-09-08T11:11:46.248Z,29.86
2023-09-08T11:14:14.170Z,29.93
2023-09-08T11:16:41.585Z,29.88
2023-09-08T11:19:11.177Z,29.97
2023-09-08T11:21:40.954Z,29.53
2023-09-08T11:24:10.684Z,30.20
2023-09-08T11:26:38.780Z,30.17
2023-09-08T11:29:06.565Z,29.74
2023-09-08T11:31:35.755Z,29.75
2023-09-08T11:34:06.639Z,29.86
2023-09-08T11:36:37.470Z,30.37
2023-09-08T11:39:07.396Z,30.35
2023-09-08T11:41:35.833Z,30.13
2023-09-08T11:44:03.354Z,30.37
2023-09-08T11:46:31.901Z,30.34
2023-09-08T11:48:59.604Z,30.19
2023-09-08T11:51:28.261Z,30.23
2023-09-08T11:53:56.110Z,30.64
2023-09-08T11:56:23.755Z,30.77
2023-09-08T11:58:52.083Z,30.88
2023-09-08T12:01:20.241Z,30.74
2023-09-08T12:03:54.924Z,31.28
2023-09-08T12:06:29.776Z,31.25
2023-09-08T12:09:03.540Z,31.19
2023-09-08T12:11:36.336Z,31.05
2023-09-08T12:14:08.404Z,31.36
2023-09-08T12:16:36.595Z,31.46
2023-09-08T12:19:05.055Z,31.78
2023-09-08T12:21:36.229Z,32.18
2023-09-08T12:24:04.026Z,31.72
2023-09-08T12:26:31.812Z,31.55
2023-09-08T12:28:59.409Z,32.17
2023-09-08T12:31:27.280Z,32.35
2023-09-08T12:33:55.244Z,32.08
2023-09-08T12:36:24.905Z,32.42
2023-09-08T12:38:53.544Z,32.51
2023-09-08T12:41:21.097Z,32.46
2023-09-08T12:43:49.058Z,32.59
2023-09-08T12:46:20.192Z,32.54
2023-09-08T12:48:48.277Z,32.44
2023-09-08T12:51:15.721Z,32.07
2023-09-08T12:53:43.386Z,32.38
2023-09-08T12:56:10.797Z,32.82
2023-09-08T12:58:38.470Z,32.64
2023-09-08T13:01:08.230Z,32.84
2023-09-08T13:03:36.579Z,32.63
2023-09-08T13:06:04.507Z,32.95
2023-09-08T13:08:32.642Z,32.75
2023-09-08T13:11:00.121Z,32.93
2023-09-08T13:13:30.329Z,32.84
2023-09-08T13:15:58.237Z,32.54
2023-09-08T13:18:25.669Z,33.17
2023-09-08T13:20:53.541Z,31.78
2023-09-08T13:23:21.369Z,31.22
2023-09-08T13:25:48.764Z,31.67
2023-09-08T13:28:17.054Z,32.38
2023-09-08T13:30:44.882Z,32.21
2023-09-08T13:33:12.381Z,33.33
2023-09-08T13:35:40.302Z,33.68
2023-09-08T13:38:08.181Z,33.51
2023-09-08T13:40:35.603Z,33.70
2023-09-08T13:43:03.613Z,34.13
2023-09-08T13:45:31.424Z,34.27
2023-09-08T13:47:59.405Z,34.41
2023-09-08T13:50:28.258Z,34.35
2023-09-08T13:52:56.495Z,34.06
2023-09-08T13:58:00.284Z,34.19
2023-09-08T14:00:31.591Z,34.33
2023-09-08T14:03:00.418Z,34.10
2023-09-08T14:05:36.831Z,34.22
2023-09-08T14:08:16.514Z,34.36
2023-09-08T14:13:16.327Z,36.16
2023-09-08T14:15:44.748Z,42.37
2023-09-08T14:18:12.628Z,41.94
2023-09-08T14:20:40.094Z,47.39
2023-09-08T14:23:09.836Z,49.06
2023-09-08T14:25:37.394Z,48.93
2023-09-08T14:28:06.850Z,50.58
2023-09-08T14:30:36.383Z,48.55
2023-09-08T14:33:04.604Z,47.82
2023-09-08T14:35:32.196Z,51.35
2023-09-08T14:38:02.821Z,52.67
2023-09-08T14:40:30.572Z,52.53
2023-09-08T14:42:58.082Z,52.63
2023-09-08T14:45:27.875Z,52.78
2023-09-08T14:47:55.397Z,52.15
2023-09-08T14:50:23.406Z,53.09
2023-09-08T14:52:50.730Z,51.11
2023-09-08T14:55:18.111Z,52.38
2023-09-08T14:57:45.589Z,50.97
2023-09-08T15:00:14.214Z,49.54
2023-09-08T15:02:42.336Z,48.45
2023-09-08T15:05:10.170Z,48.00
2023-09-08T15:07:37.984Z,50.36
2023-09-08T15:10:05.717Z,50.96
2023-09-08T15:12:33.174Z,52.94
2023-09-08T15:15:01.033Z,50.32
2023-09-08T15:17:28.903Z,49.84
2023-09-08T15:19:56.363Z,51.51
2023-09-08T15:22:23.709Z,51.73
2023-09-08T15:24:51.175Z,52.93
2023-09-08T15:27:18.593Z,51.99
2023-09-08T15:29:45.983Z,49.48
2023-09-08T15:32:13.414Z,51.80
2023-09-08T15:34:41.371Z,49.55
2023-09-08T15:37:08.755Z,47.30
2023-09-08T15:39:36.199Z,49.81
2023-09-08T15:42:04.310Z,49.92
2023-09-08T15:44:32.181Z,51.01
2023-09-08T15:46:59.581Z,51.60
2023-09-08T15:49:27.289Z,50.00
2023-09-08T15:52:08.914Z,50.28
2023-09-08T15:54:43.244Z,50.76
2023-09-08T15:57:10.750Z,49.42
2023-09-08T15:59:39.862Z,47.25
2023-09-08T16:02:07.966Z,47.49
2023-09-08T16:04:36.063Z,48.96
2023-09-08T16:07:03.935Z,49.52
2023-09-08T16:09:31.727Z,46.61
2023-09-08T16:11:59.569Z,46.20
2023-09-08T16:14:27.006Z,45.36
2023-09-08T16:16:54.528Z,45.78
2023-09-08T16:19:21.991Z,46.84
2023-09-08T16:21:49.350Z,46.78
2023-09-08T16:24:17.567Z,45.81
2023-09-08T16:26:45.015Z,45.52
2023-09-08T16:29:12.613Z,45.10
2023-09-08T16:31:40.194Z,44.93
2023-09-08T16:34:08.168Z,45.74
2023-09-08T16:36:35.953Z,43.38
2023-09-08T16:39:03.483Z,44.86
2023-09-08T16:41:31.323Z,43.84
2023-09-08T16:43:58.711Z,41.26
2023-09-08T16:46:26.164Z,39.97
2023-09-08T16:48:53.958Z,40.38
2023-09-08T16:51:22.394Z,40.55
2023-09-08T16:53:49.799Z,40.54
2023-09-08T16:56:17.354Z,36.66
2023-09-08T16:58:45.245Z,34.89
2023-09-08T17:01:13.322Z,33.42
2023-09-08T17:03:41.073Z,32.79
2023-09-08T17:06:08.919Z,31.98
2023-09-08T17:08:36.969Z,31.77
2023-09-08T17:11:06.244Z,31.24
2023-09-08T17:13:35.638Z,31.21
2023-09-08T17:16:03.624Z,31.01
2023-09-08T17:18:31.042Z,30.93
2023-09-08T17:20:58.448Z,30.81
2023-09-08T17:23:26.338Z,30.23
2023-09-08T17:25:53.848Z,30.01
2023-09-08T17:28:21.168Z,29.95
2023-09-08T17:30:49.299Z,29.53
2023-09-08T17:33:17.553Z,29.37
2023-09-08T17:35:47.773Z,29.09
2023-09-08T17:38:15.194Z,28.95
2023-09-08T17:40:42.667Z,28.81
2023-09-08T17:43:10.386Z,28.61
2023-09-08T17:45:39.400Z,28.43
2023-09-08T17:48:07.875Z,28.36
2023-09-08T17:50:35.561Z,28.10
2023-09-08T17:53:03.532Z,27.91
2023-09-08T17:55:31.029Z,27.85
2023-09-08T17:57:58.939Z,27.75
2023-09-08T18:00:26.355Z,27.35
2023-09-08T18:02:54.682Z,27.21
2023-09-08T18:05:22.256Z,27.22
2023-09-08T18:07:49.588Z,27.30
2023-09-08T18:10:17.510Z,27.23
2023-09-08T18:12:45.301Z,27.18
2023-09-08T18:15:12.702Z,27.01
2023-09-08T18:17:41.226Z,26.84
2023-09-08T18:20:09.855Z,26.80
2023-09-08T18:22:37.292Z,26.79
2023-09-08T18:25:05.442Z,26.74
2023-09-08T18:27:33.909Z,26.72
2023-09-08T18:30:01.685Z,26.68
2023-09-08T18:32:29.277Z,26.54
2023-09-08T18:34:57.162Z,26.39
2023-09-08T18:37:24.547Z,26.34
2023-09-08T18:39:51.891Z,26.16
2023-09-08T18:42:19.949Z,25.88
2023-09-08T18:44:47.325Z,25.91
2023-09-08T18:47:14.770Z,26.01
2023-09-08T18:49:42.314Z,26.02
2023-09-08T18:52:10.989Z,25.95
2023-09-08T18:54:40.795Z,25.58
2023-09-08T18:57:08.348Z,25.49
2023-09-08T18:59:35.692Z,25.41
2023-09-08T19:02:05.659Z,25.45
2023-09-08T19:04:33.791Z,25.46
2023-09-08T19:07:01.409Z,25.52
2023-09-08T19:09:29.313Z,25.36
2023-09-08T19:11:56.779Z,25.27
2023-09-08T19:14:27.925Z,25.27
2023-09-08T19:16:56.032Z,25.18
2023-09-08T19:19:23.498Z,25.19
2023-09-08T19:21:52.973Z,25.06
2023-09-08T19:24:24.262Z,25.07
2023-09-08T19:26:52.324Z,24.92
2023-09-08T19:29:20.566Z,24.98
2023-09-08T19:31:48.364Z,25.00
2023-09-08T19:34:15.834Z,25.02
2023-09-08T19:36:43.257Z,24.86
2023-09-08T19:39:10.669Z,24.72
2023-09-08T19:41:38.390Z,24.64
2023-09-08T19:44:06.552Z,24.61
2023-09-08T19:46:37.656Z,24.56
2023-09-08T19:49:05.854Z,24.67
2023-09-08T19:51:33.236Z,24.62
2023-09-08T19:54:01.606Z,24.46
2023-09-08T19:56:29.490Z,24.35
2023-09-08T19:58:56.847Z,24.45
2023-09-08T20:01:24.817Z,24.28
2023-09-08T20:03:52.309Z,24.21
2023-09-08T20:06:20.238Z,24.15
2023-09-08T20:08:48.299Z,24.10
2023-09-08T20:11:15.899Z,23.95
2023-09-08T20:13:43.503Z,24.08
2023-09-08T20:16:11.237Z,24.12
2023-09-08T20:18:40.176Z,24.00
2023-09-08T20:21:08.548Z,24.04
2023-09-08T20:23:36.847Z,23.96
2023-09-08T20:26:04.465Z,23.83
2023-09-08T20:28:33.049Z,23.92
2023-09-08T20:31:15.647Z,23.87
2023-09-08T20:33:46.369Z,23.75
2023-09-08T20:36:15.335Z,23.54
2023-09-08T20:38:43.826Z,23.40
2023-09-08T20:41:12.649Z,23.37
2023-09-08T20:43:41.023Z,23.26
2023-09-08T20:46:08.743Z,23.23
2023-09-08T20:48:38.527Z,23.18
2023-09-08T20:51:12.264Z,23.13
2023-09-08T20:53:42.157Z,23.06
2023-09-08T20:56:11.331Z,23.01
2023-09-08T20:58:41.056Z,23.00
2023-09-08T21:01:09.008Z,22.95
2023-09-08T21:03:37.301Z,23.07
2023-09-08T21:06:05.761Z,23.03
2023-09-08T21:08:33.256Z,23.01
2023-09-08T21:11:00.741Z,22.94
2023-09-08T21:13:28.340Z,22.91
2023-09-08T21:15:56.758Z,22.85
2023-09-08T21:18:24.188Z,22.67
2023-09-08T21:20:52.263Z,22.79
2023-09-08T21:23:20.226Z,22.99
2023-09-08T21:25:47.688Z,23.15
2023-09-08T21:28:15.234Z,22.98
2023-09-08T21:30:42.679Z,22.91
2023-09-08T21:33:10.376Z,22.89
2023-09-08T21:35:38.072Z,23.45
2023-09-08T21:38:05.978Z,23.53
2023-09-08T21:40:33.857Z,23.27
2023-09-08T21:43:01.324Z,22.94
2023-09-08T21:45:28.678Z,22.74
2023-09-08T21:47:57.219Z,22.57
2023-09-08T21:50:25.070Z,22.52
